sensor_id;sensor_type;location;lat;lon;timestamp;temperature;humidity
2997;DHT22;1508;48.744;9.110;2023-01-30T00:01:05;-2.00;99.90
2997;DHT22;1508;48.744;9.110;2023-01-30T00:03:52;-2.10;99.90
2997;DHT22;1508;48.744;9.110;2023-01-30T00:06:39;-2.10;99.90
2997;DHT22;1508;48.744;9.110;2023-01-30T00:09:25;-2.10;99.90
2997;DHT22;1508;48.744;9.110;2023-01-30T00:12:11;-2.10;99.90
2997;DHT22;1508;48.744;9.110;2023-01-30T00:14:57;-2.00;99.90
2997;DHT22;1508;48.744;9.110;2023-01-30T00:17:42;-2.00;99.90
2997;DHT22;1508;48.744;9.110;2023-01-30T00:20:28;-2.00;99.90
2997;DHT22;1508;48.744;9.110;2023-01-30T00:23:14;-2.00;99.90
2997;DHT22;1508;48.744;9.110;2023-01-30T00:26:00;-2.00;99.90
2997;DHT22;1508;48.744;9.110;2023-01-30T00:28:46;-2.00;99.90
2997;DHT22;1508;48.744;9.110;2023-01-30T00:31:32;-2.00;99.90
2997;DHT22;1508;48.744;9.110;2023-01-30T00:34:18;-2.00;99.90
2997;DHT22;1508;48.744;9.110;2023-01-30T00:37:04;-2.00;99.90
2997;DHT22;1508;48.744;9.110;2023-01-30T00:39:49;-2.10;99.90
2997;DHT22;1508;48.744;9.110;2023-01-30T00:42:35;-2.10;99.90
2997;DHT22;1508;48.744;9.110;2023-01-30T00:45:21;-2.00;99.90
2997;DHT22;1508;48.744;9.110;2023-01-30T00:48:07;-2.00;99.90
2997;DHT22;1508;48.744;9.110;2023-01-30T00:50:53;-2.00;99.90
2997;DHT22;1508;48.744;9.110;2023-01-30T00:53:39;-1.90;99.90
2997;DHT22;1508;48.744;9.110;2023-01-30T00:56:24;-1.90;99.90
2997;DHT22;1508;48.744;9.110;2023-01-30T00:59:10;-1.90;99.90
2997;DHT22;1508;48.744;9.110;2023-01-30T01:01:56;-2.00;99.90
2997;DHT22;1508;48.744;9.110;2023-01-30T01:04:42;-2.00;99.90
2997;DHT22;1508;48.744;9.110;2023-01-30T01:07:28;-2.00;99.90
2997;DHT22;1508;48.744;9.110;2023-01-30T01:10:14;-2.00;99.90
2997;DHT22;1508;48.744;9.110;2023-01-30T01:13:00;-2.10;99.90
2997;DHT22;1508;48.744;9.110;2023-01-30T01:15:46;-2.20;99.90
2997;DHT22;1508;48.744;9.110;2023-01-30T01:18:31;-2.30;99.90
2997;DHT22;1508;48.744;9.110;2023-01-30T01:21:18;-2.40;99.90
2997;DHT22;1508;48.744;9.110;2023-01-30T01:24:04;-2.30;99.90
2997;DHT22;1508;48.744;9.110;2023-01-30T01:26:50;-2.30;99.90
2997;DHT22;1508;48.744;9.110;2023-01-30T01:29:36;-2.30;99.90
2997;DHT22;1508;48.744;9.110;2023-01-30T01:32:22;-2.40;99.90
2997;DHT22;1508;48.744;9.110;2023-01-30T01:35:08;-2.40;99.90
2997;DHT22;1508;48.744;9.110;2023-01-30T01:37:54;-2.60;99.90
2997;DHT22;1508;48.744;9.110;2023-01-30T01:40:45;-2.70;99.90
2997;DHT22;1508;48.744;9.110;2023-01-30T01:43:58;-2.70;99.90
2997;DHT22;1508;48.744;9.110;2023-01-30T01:46:57;-2.70;99.90
2997;DHT22;1508;48.744;9.110;2023-01-30T01:49:44;-2.60;99.90
2997;DHT22;1508;48.744;9.110;2023-01-30T01:52:30;-2.50;99.90
2997;DHT22;1508;48.744;9.110;2023-01-30T01:55:16;-2.50;99.90
2997;DHT22;1508;48.744;9.110;2023-01-30T01:58:07;-2.50;99.90
2997;DHT22;1508;48.744;9.110;2023-01-30T02:00:57;-2.60;99.90
2997;DHT22;1508;48.744;9.110;2023-01-30T02:03:48;-2.50;99.90
2997;DHT22;1508;48.744;9.110;2023-01-30T02:06:37;-2.40;99.90
2997;DHT22;1508;48.744;9.110;2023-01-30T02:09:23;-2.30;99.90
2997;DHT22;1508;48.744;9.110;2023-01-30T02:12:10;-2.20;99.90
2997;DHT22;1508;48.744;9.110;2023-01-30T02:14:59;-2.20;99.90
2997;DHT22;1508;48.744;9.110;2023-01-30T02:17:46;-2.20;99.90
2997;DHT22;1508;48.744;9.110;2023-01-30T02:36:03;-2.20;99.90
2997;DHT22;1508;48.744;9.110;2023-01-30T02:42:37;-2.20;99.90
2997;DHT22;1508;48.744;9.110;2023-01-30T02:48:35;-2.30;99.90
2997;DHT22;1508;48.744;9.110;2023-01-30T02:51:30;-2.30;99.90
2997;DHT22;1508;48.744;9.110;2023-01-30T02:54:18;-2.40;99.90
2997;DHT22;1508;48.744;9.110;2023-01-30T02:57:22;-2.40;99.90
2997;DHT22;1508;48.744;9.110;2023-01-30T03:00:09;-2.40;99.90
2997;DHT22;1508;48.744;9.110;2023-01-30T03:06:15;-2.50;99.90
2997;DHT22;1508;48.744;9.110;2023-01-30T03:09:28;-2.50;99.90
2997;DHT22;1508;48.744;9.110;2023-01-30T03:15:22;-2.50;99.90
2997;DHT22;1508;48.744;9.110;2023-01-30T03:18:10;-2.50;99.90
2997;DHT22;1508;48.744;9.110;2023-01-30T03:21:03;-2.50;99.90
2997;DHT22;1508;48.744;9.110;2023-01-30T03:23:49;-2.50;99.90
2997;DHT22;1508;48.744;9.110;2023-01-30T03:26:39;-2.40;99.90
2997;DHT22;1508;48.744;9.110;2023-01-30T03:29:27;-2.30;99.90
2997;DHT22;1508;48.744;9.110;2023-01-30T03:32:12;-2.20;99.90
2997;DHT22;1508;48.744;9.110;2023-01-30T03:34:58;-2.20;99.90
2997;DHT22;1508;48.744;9.110;2023-01-30T03:37:44;-2.20;99.90
2997;DHT22;1508;48.744;9.110;2023-01-30T03:40:30;-2.10;99.90
2997;DHT22;1508;48.744;9.110;2023-01-30T03:43:16;-2.00;99.90
2997;DHT22;1508;48.744;9.110;2023-01-30T03:46:02;-1.90;99.90
2997;DHT22;1508;48.744;9.110;2023-01-30T03:48:48;-1.80;99.90
2997;DHT22;1508;48.744;9.110;2023-01-30T03:51:34;-1.70;99.90
2997;DHT22;1508;48.744;9.110;2023-01-30T03:54:20;-1.70;99.90
2997;DHT22;1508;48.744;9.110;2023-01-30T03:57:05;-1.60;99.90
2997;DHT22;1508;48.744;9.110;2023-01-30T03:59:51;-1.60;99.90
2997;DHT22;1508;48.744;9.110;2023-01-30T04:02:37;-1.50;99.90
2997;DHT22;1508;48.744;9.110;2023-01-30T04:05:23;-1.50;99.90
2997;DHT22;1508;48.744;9.110;2023-01-30T04:08:09;-1.40;99.90
2997;DHT22;1508;48.744;9.110;2023-01-30T04:10:55;-1.30;99.90
2997;DHT22;1508;48.744;9.110;2023-01-30T04:13:41;-1.40;99.90
2997;DHT22;1508;48.744;9.110;2023-01-30T04:16:27;-1.40;99.90
2997;DHT22;1508;48.744;9.110;2023-01-30T04:19:13;-1.30;99.90
2997;DHT22;1508;48.744;9.110;2023-01-30T04:21:58;-1.30;99.90
2997;DHT22;1508;48.744;9.110;2023-01-30T04:24:44;-1.20;99.90
2997;DHT22;1508;48.744;9.110;2023-01-30T04:27:30;-1.20;99.90
2997;DHT22;1508;48.744;9.110;2023-01-30T04:30:16;-1.10;99.90
2997;DHT22;1508;48.744;9.110;2023-01-30T04:33:02;-1.10;99.90
2997;DHT22;1508;48.744;9.110;2023-01-30T04:35:55;-1.10;99.90
2997;DHT22;1508;48.744;9.110;2023-01-30T04:38:41;-1.10;99.90
2997;DHT22;1508;48.744;9.110;2023-01-30T04:41:27;-1.00;99.90
2997;DHT22;1508;48.744;9.110;2023-01-30T04:44:13;-1.00;99.90
2997;DHT22;1508;48.744;9.110;2023-01-30T04:46:59;-0.90;99.90
2997;DHT22;1508;48.744;9.110;2023-01-30T04:49:44;-0.80;99.90
2997;DHT22;1508;48.744;9.110;2023-01-30T04:52:30;-0.70;99.90
2997;DHT22;1508;48.744;9.110;2023-01-30T04:55:16;-0.60;99.90
2997;DHT22;1508;48.744;9.110;2023-01-30T04:58:02;-0.70;99.90
2997;DHT22;1508;48.744;9.110;2023-01-30T05:00:48;-0.60;99.90
2997;DHT22;1508;48.744;9.110;2023-01-30T05:03:34;-0.60;99.90
2997;DHT22;1508;48.744;9.110;2023-01-30T05:06:21;-0.50;99.90
2997;DHT22;1508;48.744;9.110;2023-01-30T05:09:07;-0.50;99.90
2997;DHT22;1508;48.744;9.110;2023-01-30T05:11:53;-0.60;99.90
2997;DHT22;1508;48.744;9.110;2023-01-30T05:14:38;-0.50;99.90
2997;DHT22;1508;48.744;9.110;2023-01-30T05:17:24;-0.50;99.90
2997;DHT22;1508;48.744;9.110;2023-01-30T05:20:11;-0.50;99.90
2997;DHT22;1508;48.744;9.110;2023-01-30T05:22:57;-0.50;99.90
2997;DHT22;1508;48.744;9.110;2023-01-30T05:25:43;-0.50;99.90
2997;DHT22;1508;48.744;9.110;2023-01-30T05:28:29;-0.50;99.90
2997;DHT22;1508;48.744;9.110;2023-01-30T05:31:15;-0.50;99.90
2997;DHT22;1508;48.744;9.110;2023-01-30T05:34:01;-0.50;99.90
2997;DHT22;1508;48.744;9.110;2023-01-30T05:36:47;-0.40;99.90
2997;DHT22;1508;48.744;9.110;2023-01-30T05:39:33;-0.40;99.90
2997;DHT22;1508;48.744;9.110;2023-01-30T05:42:18;-0.50;99.90
2997;DHT22;1508;48.744;9.110;2023-01-30T05:45:05;-0.40;99.90
2997;DHT22;1508;48.744;9.110;2023-01-30T05:47:51;-0.40;99.90
2997;DHT22;1508;48.744;9.110;2023-01-30T05:50:36;-0.40;99.90
2997;DHT22;1508;48.744;9.110;2023-01-30T05:53:24;-0.40;99.90
2997;DHT22;1508;48.744;9.110;2023-01-30T05:56:11;-0.30;99.90
2997;DHT22;1508;48.744;9.110;2023-01-30T05:58:57;-0.30;99.90
2997;DHT22;1508;48.744;9.110;2023-01-30T06:01:43;-0.30;99.90
2997;DHT22;1508;48.744;9.110;2023-01-30T06:04:28;-0.20;99.90
2997;DHT22;1508;48.744;9.110;2023-01-30T06:07:14;-0.30;99.90
2997;DHT22;1508;48.744;9.110;2023-01-30T06:10:00;-0.30;99.90
2997;DHT22;1508;48.744;9.110;2023-01-30T06:12:46;-0.30;99.90
2997;DHT22;1508;48.744;9.110;2023-01-30T06:15:32;-0.30;99.90
2997;DHT22;1508;48.744;9.110;2023-01-30T06:18:18;-0.30;99.90
2997;DHT22;1508;48.744;9.110;2023-01-30T06:21:04;-0.30;99.90
2997;DHT22;1508;48.744;9.110;2023-01-30T06:23:50;-0.30;99.90
2997;DHT22;1508;48.744;9.110;2023-01-30T06:26:35;-0.30;99.90
2997;DHT22;1508;48.744;9.110;2023-01-30T06:29:21;-0.40;99.90
2997;DHT22;1508;48.744;9.110;2023-01-30T06:32:07;-0.40;99.90
2997;DHT22;1508;48.744;9.110;2023-01-30T06:34:53;-0.40;99.90
2997;DHT22;1508;48.744;9.110;2023-01-30T06:37:39;-0.50;99.90
2997;DHT22;1508;48.744;9.110;2023-01-30T06:40:24;-0.40;99.90
2997;DHT22;1508;48.744;9.110;2023-01-30T06:43:11;-0.40;99.90
2997;DHT22;1508;48.744;9.110;2023-01-30T06:46:00;-0.40;99.90
2997;DHT22;1508;48.744;9.110;2023-01-30T06:48:46;-0.30;99.90
2997;DHT22;1508;48.744;9.110;2023-01-30T06:51:31;-0.30;99.90
2997;DHT22;1508;48.744;9.110;2023-01-30T06:54:17;-0.30;99.90
2997;DHT22;1508;48.744;9.110;2023-01-30T06:57:03;-0.30;99.90
2997;DHT22;1508;48.744;9.110;2023-01-30T06:59:49;-0.30;99.90
2997;DHT22;1508;48.744;9.110;2023-01-30T07:02:35;-0.20;99.90
2997;DHT22;1508;48.744;9.110;2023-01-30T07:05:21;-0.10;99.90
2997;DHT22;1508;48.744;9.110;2023-01-30T07:08:07;-0.10;99.90
2997;DHT22;1508;48.744;9.110;2023-01-30T07:10:53;-0.20;99.90
2997;DHT22;1508;48.744;9.110;2023-01-30T07:13:39;-0.20;99.90
2997;DHT22;1508;48.744;9.110;2023-01-30T07:16:25;-0.20;99.90
2997;DHT22;1508;48.744;9.110;2023-01-30T07:19:11;-0.10;99.90
2997;DHT22;1508;48.744;9.110;2023-01-30T07:21:56;0.00;99.90
2997;DHT22;1508;48.744;9.110;2023-01-30T07:24:42;0.10;99.90
2997;DHT22;1508;48.744;9.110;2023-01-30T07:27:28;0.20;99.90
2997;DHT22;1508;48.744;9.110;2023-01-30T07:30:14;0.20;99.90
2997;DHT22;1508;48.744;9.110;2023-01-30T07:33:01;0.20;99.90
2997;DHT22;1508;48.744;9.110;2023-01-30T07:35:47;0.20;99.90
2997;DHT22;1508;48.744;9.110;2023-01-30T07:38:33;0.00;99.90
2997;DHT22;1508;48.744;9.110;2023-01-30T07:41:19;0.20;99.90
2997;DHT22;1508;48.744;9.110;2023-01-30T07:44:05;0.30;99.90
2997;DHT22;1508;48.744;9.110;2023-01-30T07:46:50;0.30;99.90
2997;DHT22;1508;48.744;9.110;2023-01-30T07:49:36;0.40;99.90
2997;DHT22;1508;48.744;9.110;2023-01-30T07:52:22;0.50;99.90
2997;DHT22;1508;48.744;9.110;2023-01-30T07:55:08;0.40;99.90
2997;DHT22;1508;48.744;9.110;2023-01-30T07:57:54;0.40;99.90
2997;DHT22;1508;48.744;9.110;2023-01-30T08:00:40;0.50;99.90
2997;DHT22;1508;48.744;9.110;2023-01-30T08:03:26;0.60;99.90
2997;DHT22;1508;48.744;9.110;2023-01-30T08:06:12;0.70;99.90
2997;DHT22;1508;48.744;9.110;2023-01-30T08:08:58;0.70;99.90
2997;DHT22;1508;48.744;9.110;2023-01-30T08:11:44;0.80;99.90
2997;DHT22;1508;48.744;9.110;2023-01-30T08:14:29;0.70;99.90
2997;DHT22;1508;48.744;9.110;2023-01-30T08:17:15;0.80;99.90
2997;DHT22;1508;48.744;9.110;2023-01-30T08:20:01;0.80;99.90
2997;DHT22;1508;48.744;9.110;2023-01-30T08:22:48;0.80;99.90
2997;DHT22;1508;48.744;9.110;2023-01-30T08:25:34;0.80;99.90
2997;DHT22;1508;48.744;9.110;2023-01-30T08:28:20;0.80;99.90
2997;DHT22;1508;48.744;9.110;2023-01-30T08:31:11;0.90;99.90
2997;DHT22;1508;48.744;9.110;2023-01-30T08:33:57;0.90;99.90
2997;DHT22;1508;48.744;9.110;2023-01-30T08:36:43;0.90;99.90
2997;DHT22;1508;48.744;9.110;2023-01-30T08:39:29;1.10;99.90
2997;DHT22;1508;48.744;9.110;2023-01-30T08:42:15;1.10;99.90
2997;DHT22;1508;48.744;9.110;2023-01-30T08:45:01;1.20;99.90
2997;DHT22;1508;48.744;9.110;2023-01-30T08:47:47;1.40;99.90
2997;DHT22;1508;48.744;9.110;2023-01-30T08:50:33;1.80;99.90
2997;DHT22;1508;48.744;9.110;2023-01-30T08:53:19;2.10;99.90
2997;DHT22;1508;48.744;9.110;2023-01-30T08:56:05;2.20;99.90
2997;DHT22;1508;48.744;9.110;2023-01-30T08:58:51;2.40;99.90
2997;DHT22;1508;48.744;9.110;2023-01-30T09:01:37;2.50;99.90
2997;DHT22;1508;48.744;9.110;2023-01-30T09:04:23;2.50;99.90
2997;DHT22;1508;48.744;9.110;2023-01-30T09:07:08;2.50;99.90
2997;DHT22;1508;48.744;9.110;2023-01-30T09:09:54;2.70;99.90
2997;DHT22;1508;48.744;9.110;2023-01-30T09:12:40;3.00;99.90
2997;DHT22;1508;48.744;9.110;2023-01-30T09:15:26;3.00;99.90
2997;DHT22;1508;48.744;9.110;2023-01-30T09:18:12;3.00;99.90
2997;DHT22;1508;48.744;9.110;2023-01-30T09:21:02;3.20;99.90
2997;DHT22;1508;48.744;9.110;2023-01-30T09:23:48;3.90;99.90
2997;DHT22;1508;48.744;9.110;2023-01-30T09:26:34;4.60;99.90
2997;DHT22;1508;48.744;9.110;2023-01-30T09:29:19;4.40;99.90
2997;DHT22;1508;48.744;9.110;2023-01-30T09:32:05;3.90;99.90
2997;DHT22;1508;48.744;9.110;2023-01-30T09:34:51;3.60;99.90
2997;DHT22;1508;48.744;9.110;2023-01-30T09:37:37;3.30;99.90
2997;DHT22;1508;48.744;9.110;2023-01-30T09:40:26;3.10;99.90
2997;DHT22;1508;48.744;9.110;2023-01-30T09:43:29;3.10;99.90
2997;DHT22;1508;48.744;9.110;2023-01-30T09:49:55;2.70;99.90
2997;DHT22;1508;48.744;9.110;2023-01-30T09:55:48;2.70;99.90
2997;DHT22;1508;48.744;9.110;2023-01-30T09:58:46;2.80;99.90
2997;DHT22;1508;48.744;9.110;2023-01-30T10:01:43;2.90;99.90
2997;DHT22;1508;48.744;9.110;2023-01-30T10:04:32;2.90;99.90
2997;DHT22;1508;48.744;9.110;2023-01-30T10:10:48;3.20;99.90
2997;DHT22;1508;48.744;9.110;2023-01-30T10:17:08;3.40;99.90
2997;DHT22;1508;48.744;9.110;2023-01-30T10:20:23;3.40;99.90
2997;DHT22;1508;48.744;9.110;2023-01-30T10:26:28;3.80;99.90
2997;DHT22;1508;48.744;9.110;2023-01-30T10:32:13;3.80;99.90
2997;DHT22;1508;48.744;9.110;2023-01-30T10:35:13;3.80;99.90
2997;DHT22;1508;48.744;9.110;2023-01-30T10:38:19;3.80;99.90
2997;DHT22;1508;48.744;9.110;2023-01-30T10:44:13;3.60;99.90
2997;DHT22;1508;48.744;9.110;2023-01-30T10:47:30;3.80;99.90
2997;DHT22;1508;48.744;9.110;2023-01-30T10:50:22;3.70;99.90
2997;DHT22;1508;48.744;9.110;2023-01-30T10:59:23;3.70;99.90
2997;DHT22;1508;48.744;9.110;2023-01-30T11:02:23;3.70;99.90
2997;DHT22;1508;48.744;9.110;2023-01-30T11:05:17;3.60;99.90
2997;DHT22;1508;48.744;9.110;2023-01-30T11:14:11;3.70;99.90
2997;DHT22;1508;48.744;9.110;2023-01-30T11:16:57;3.60;99.90
2997;DHT22;1508;48.744;9.110;2023-01-30T11:19:44;3.30;99.90
2997;DHT22;1508;48.744;9.110;2023-01-30T11:22:31;3.40;99.90
2997;DHT22;1508;48.744;9.110;2023-01-30T11:25:21;3.50;99.90
2997;DHT22;1508;48.744;9.110;2023-01-30T11:28:11;3.50;99.90
2997;DHT22;1508;48.744;9.110;2023-01-30T11:30:59;3.50;99.90
2997;DHT22;1508;48.744;9.110;2023-01-30T11:34:02;3.40;99.90
2997;DHT22;1508;48.744;9.110;2023-01-30T11:36:49;3.30;99.90
2997;DHT22;1508;48.744;9.110;2023-01-30T11:39:35;3.20;99.90
2997;DHT22;1508;48.744;9.110;2023-01-30T11:42:28;3.10;99.90
2997;DHT22;1508;48.744;9.110;2023-01-30T11:45:17;3.10;99.90
2997;DHT22;1508;48.744;9.110;2023-01-30T11:48:26;3.10;99.90
2997;DHT22;1508;48.744;9.110;2023-01-30T11:51:11;3.20;99.90
2997;DHT22;1508;48.744;9.110;2023-01-30T11:54:10;2.90;99.90
2997;DHT22;1508;48.744;9.110;2023-01-30T11:56:58;2.80;99.90
2997;DHT22;1508;48.744;9.110;2023-01-30T12:02:39;2.90;99.90
2997;DHT22;1508;48.744;9.110;2023-01-30T12:05:31;2.90;99.90
2997;DHT22;1508;48.744;9.110;2023-01-30T12:08:25;2.90;99.90
2997;DHT22;1508;48.744;9.110;2023-01-30T12:11:28;2.90;99.90
2997;DHT22;1508;48.744;9.110;2023-01-30T12:14:20;2.80;99.90
2997;DHT22;1508;48.744;9.110;2023-01-30T12:23:16;2.80;99.90
2997;DHT22;1508;48.744;9.110;2023-01-30T12:26:13;2.80;99.90
2997;DHT22;1508;48.744;9.110;2023-01-30T12:29:23;2.70;99.90
2997;DHT22;1508;48.744;9.110;2023-01-30T12:32:13;2.60;99.90
2997;DHT22;1508;48.744;9.110;2023-01-30T12:35:01;2.60;99.90
2997;DHT22;1508;48.744;9.110;2023-01-30T12:38:08;2.70;99.90
2997;DHT22;1508;48.744;9.110;2023-01-30T12:47:18;2.80;99.90
2997;DHT22;1508;48.744;9.110;2023-01-30T12:59:19;2.40;99.90
2997;DHT22;1508;48.744;9.110;2023-01-30T13:08:58;2.50;99.90
2997;DHT22;1508;48.744;9.110;2023-01-30T13:14:41;2.30;99.90
2997;DHT22;1508;48.744;9.110;2023-01-30T13:20:54;2.50;99.90
2997;DHT22;1508;48.744;9.110;2023-01-30T13:26:49;2.60;99.90
2997;DHT22;1508;48.744;9.110;2023-01-30T13:29:38;2.70;99.90
2997;DHT22;1508;48.744;9.110;2023-01-30T13:32:39;2.80;99.90
2997;DHT22;1508;48.744;9.110;2023-01-30T13:35:29;2.80;99.90
2997;DHT22;1508;48.744;9.110;2023-01-30T13:38:20;2.80;99.90
2997;DHT22;1508;48.744;9.110;2023-01-30T13:41:08;3.00;99.90
2997;DHT22;1508;48.744;9.110;2023-01-30T13:43:56;3.00;99.90
2997;DHT22;1508;48.744;9.110;2023-01-30T13:46:42;3.10;99.90
2997;DHT22;1508;48.744;9.110;2023-01-30T13:49:41;3.10;99.90
2997;DHT22;1508;48.744;9.110;2023-01-30T13:58:42;2.70;99.90
2997;DHT22;1508;48.744;9.110;2023-01-30T14:04:50;2.60;99.90
2997;DHT22;1508;48.744;9.110;2023-01-30T14:07:40;2.60;99.90
2997;DHT22;1508;48.744;9.110;2023-01-30T14:10:27;2.50;99.90
2997;DHT22;1508;48.744;9.110;2023-01-30T14:13:14;2.50;99.90
2997;DHT22;1508;48.744;9.110;2023-01-30T14:16:03;2.50;99.90
2997;DHT22;1508;48.744;9.110;2023-01-30T14:18:50;2.50;99.90
2997;DHT22;1508;48.744;9.110;2023-01-30T14:21:36;2.50;99.90
2997;DHT22;1508;48.744;9.110;2023-01-30T14:24:22;2.50;99.90
2997;DHT22;1508;48.744;9.110;2023-01-30T14:27:23;2.60;99.90
2997;DHT22;1508;48.744;9.110;2023-01-30T14:39:37;2.80;99.90
2997;DHT22;1508;48.744;9.110;2023-01-30T14:42:26;2.80;99.90
2997;DHT22;1508;48.744;9.110;2023-01-30T14:45:15;2.90;99.90
2997;DHT22;1508;48.744;9.110;2023-01-30T14:54:25;2.90;99.90
2997;DHT22;1508;48.744;9.110;2023-01-30T14:57:18;2.90;99.90
2997;DHT22;1508;48.744;9.110;2023-01-30T15:00:17;2.80;99.90
2997;DHT22;1508;48.744;9.110;2023-01-30T15:03:08;2.90;99.90
2997;DHT22;1508;48.744;9.110;2023-01-30T15:06:01;2.80;99.90
2997;DHT22;1508;48.744;9.110;2023-01-30T15:08:47;2.80;99.90
2997;DHT22;1508;48.744;9.110;2023-01-30T15:11:33;2.70;99.90
2997;DHT22;1508;48.744;9.110;2023-01-30T15:14:36;2.80;99.90
2997;DHT22;1508;48.744;9.110;2023-01-30T15:20:24;2.80;99.90
2997;DHT22;1508;48.744;9.110;2023-01-30T15:32:31;2.80;99.90
2997;DHT22;1508;48.744;9.110;2023-01-30T15:38:03;2.70;99.90
2997;DHT22;1508;48.744;9.110;2023-01-30T15:40:49;2.70;99.90
2997;DHT22;1508;48.744;9.110;2023-01-30T15:44:31;2.70;99.90
2997;DHT22;1508;48.744;9.110;2023-01-30T15:50:09;2.70;99.90
2997;DHT22;1508;48.744;9.110;2023-01-30T15:52:55;2.70;99.90
2997;DHT22;1508;48.744;9.110;2023-01-30T15:55:42;2.70;99.90
2997;DHT22;1508;48.744;9.110;2023-01-30T15:58:29;2.70;99.90
2997;DHT22;1508;48.744;9.110;2023-01-30T16:01:21;2.70;99.90
2997;DHT22;1508;48.744;9.110;2023-01-30T16:04:25;2.60;99.90
2997;DHT22;1508;48.744;9.110;2023-01-30T16:07:24;2.70;99.90
2997;DHT22;1508;48.744;9.110;2023-01-30T16:10:17;2.60;99.90
2997;DHT22;1508;48.744;9.110;2023-01-30T16:13:03;2.50;99.90
2997;DHT22;1508;48.744;9.110;2023-01-30T16:15:57;2.50;99.90
2997;DHT22;1508;48.744;9.110;2023-01-30T16:19:00;2.50;99.90
2997;DHT22;1508;48.744;9.110;2023-01-30T16:21:47;2.40;99.90
2997;DHT22;1508;48.744;9.110;2023-01-30T16:24:35;2.50;99.90
2997;DHT22;1508;48.744;9.110;2023-01-30T16:27:32;2.50;99.90
2997;DHT22;1508;48.744;9.110;2023-01-30T16:30:24;2.50;99.90
2997;DHT22;1508;48.744;9.110;2023-01-30T16:33:16;2.50;99.90
2997;DHT22;1508;48.744;9.110;2023-01-30T16:36:05;2.50;99.90
2997;DHT22;1508;48.744;9.110;2023-01-30T16:38:52;2.50;99.90
2997;DHT22;1508;48.744;9.110;2023-01-30T16:41:39;2.40;99.90
2997;DHT22;1508;48.744;9.110;2023-01-30T16:44:29;2.50;99.90
2997;DHT22;1508;48.744;9.110;2023-01-30T16:47:26;2.40;99.90
2997;DHT22;1508;48.744;9.110;2023-01-30T16:50:18;2.40;99.90
2997;DHT22;1508;48.744;9.110;2023-01-30T16:53:04;2.40;99.90
2997;DHT22;1508;48.744;9.110;2023-01-30T16:56:03;2.40;99.90
2997;DHT22;1508;48.744;9.110;2023-01-30T16:58:54;2.40;99.90
2997;DHT22;1508;48.744;9.110;2023-01-30T17:01:41;2.40;99.90
2997;DHT22;1508;48.744;9.110;2023-01-30T17:04:31;2.40;99.90
2997;DHT22;1508;48.744;9.110;2023-01-30T17:07:35;2.40;99.90
2997;DHT22;1508;48.744;9.110;2023-01-30T17:13:38;2.50;99.90
2997;DHT22;1508;48.744;9.110;2023-01-30T17:16:30;2.50;99.90
2997;DHT22;1508;48.744;9.110;2023-01-30T17:19:16;2.40;99.90
2997;DHT22;1508;48.744;9.110;2023-01-30T17:22:06;2.40;99.90
2997;DHT22;1508;48.744;9.110;2023-01-30T17:25:02;2.40;99.90
2997;DHT22;1508;48.744;9.110;2023-01-30T17:27:48;2.40;99.90
2997;DHT22;1508;48.744;9.110;2023-01-30T17:30:33;2.40;99.90
2997;DHT22;1508;48.744;9.110;2023-01-30T17:33:19;2.50;99.90
2997;DHT22;1508;48.744;9.110;2023-01-30T17:36:18;2.50;99.90
2997;DHT22;1508;48.744;9.110;2023-01-30T17:39:12;2.50;99.90
2997;DHT22;1508;48.744;9.110;2023-01-30T17:41:58;2.60;99.90
2997;DHT22;1508;48.744;9.110;2023-01-30T17:44:43;2.70;99.90
2997;DHT22;1508;48.744;9.110;2023-01-30T17:47:29;2.60;99.90
2997;DHT22;1508;48.744;9.110;2023-01-30T17:50:15;2.60;99.90
2997;DHT22;1508;48.744;9.110;2023-01-30T17:53:02;2.60;99.90
2997;DHT22;1508;48.744;9.110;2023-01-30T17:55:48;2.50;99.90
2997;DHT22;1508;48.744;9.110;2023-01-30T17:58:34;2.50;99.90
2997;DHT22;1508;48.744;9.110;2023-01-30T18:01:21;2.50;99.90
2997;DHT22;1508;48.744;9.110;2023-01-30T18:04:07;2.50;99.90
2997;DHT22;1508;48.744;9.110;2023-01-30T18:07:03;2.50;99.90
2997;DHT22;1508;48.744;9.110;2023-01-30T18:09:49;2.70;99.90
2997;DHT22;1508;48.744;9.110;2023-01-30T18:12:35;2.80;99.90
2997;DHT22;1508;48.744;9.110;2023-01-30T18:15:21;2.70;99.90
2997;DHT22;1508;48.744;9.110;2023-01-30T18:18:10;2.70;99.90
2997;DHT22;1508;48.744;9.110;2023-01-30T18:20:58;2.70;99.90
2997;DHT22;1508;48.744;9.110;2023-01-30T18:23:43;2.70;99.90
2997;DHT22;1508;48.744;9.110;2023-01-30T18:26:29;2.70;99.90
2997;DHT22;1508;48.744;9.110;2023-01-30T18:29:15;2.70;99.90
2997;DHT22;1508;48.744;9.110;2023-01-30T18:32:01;2.70;99.90
2997;DHT22;1508;48.744;9.110;2023-01-30T18:34:47;2.70;99.90
2997;DHT22;1508;48.744;9.110;2023-01-30T18:37:33;2.70;99.90
2997;DHT22;1508;48.744;9.110;2023-01-30T18:40:19;2.70;99.90
2997;DHT22;1508;48.744;9.110;2023-01-30T18:43:05;2.70;99.90
2997;DHT22;1508;48.744;9.110;2023-01-30T18:48:48;2.80;99.90
2997;DHT22;1508;48.744;9.110;2023-01-30T18:51:34;2.70;99.90
2997;DHT22;1508;48.744;9.110;2023-01-30T18:54:20;2.60;99.90
2997;DHT22;1508;48.744;9.110;2023-01-30T18:57:06;2.60;99.90
2997;DHT22;1508;48.744;9.110;2023-01-30T18:59:52;2.60;99.90
2997;DHT22;1508;48.744;9.110;2023-01-30T19:02:37;2.50;99.90
2997;DHT22;1508;48.744;9.110;2023-01-30T19:05:23;2.50;99.90
2997;DHT22;1508;48.744;9.110;2023-01-30T19:08:09;2.40;99.90
2997;DHT22;1508;48.744;9.110;2023-01-30T19:11:01;2.30;99.90
2997;DHT22;1508;48.744;9.110;2023-01-30T19:13:47;2.30;99.90
2997;DHT22;1508;48.744;9.110;2023-01-30T19:16:34;2.20;99.90
2997;DHT22;1508;48.744;9.110;2023-01-30T19:19:21;2.20;99.90
2997;DHT22;1508;48.744;9.110;2023-01-30T19:22:09;2.20;99.90
2997;DHT22;1508;48.744;9.110;2023-01-30T19:24:55;2.20;99.90
2997;DHT22;1508;48.744;9.110;2023-01-30T19:27:40;2.10;99.90
2997;DHT22;1508;48.744;9.110;2023-01-30T19:30:26;2.10;99.90
2997;DHT22;1508;48.744;9.110;2023-01-30T19:33:13;2.10;99.90
2997;DHT22;1508;48.744;9.110;2023-01-30T19:36:16;2.10;99.90
2997;DHT22;1508;48.744;9.110;2023-01-30T19:39:04;2.00;99.90
2997;DHT22;1508;48.744;9.110;2023-01-30T19:41:50;2.00;99.90
2997;DHT22;1508;48.744;9.110;2023-01-30T19:44:36;2.00;99.90
2997;DHT22;1508;48.744;9.110;2023-01-30T19:47:21;2.10;99.90
2997;DHT22;1508;48.744;9.110;2023-01-30T19:50:08;2.10;99.90
2997;DHT22;1508;48.744;9.110;2023-01-30T19:52:54;2.10;99.90
2997;DHT22;1508;48.744;9.110;2023-01-30T19:55:40;2.10;99.90
2997;DHT22;1508;48.744;9.110;2023-01-30T19:58:25;2.10;99.90
2997;DHT22;1508;48.744;9.110;2023-01-30T20:01:13;2.20;99.90
2997;DHT22;1508;48.744;9.110;2023-01-30T20:04:01;2.20;99.90
2997;DHT22;1508;48.744;9.110;2023-01-30T20:06:46;2.20;99.90
2997;DHT22;1508;48.744;9.110;2023-01-30T20:09:32;2.20;99.90
2997;DHT22;1508;48.744;9.110;2023-01-30T20:12:18;2.30;99.90
2997;DHT22;1508;48.744;9.110;2023-01-30T20:15:04;2.30;99.90
2997;DHT22;1508;48.744;9.110;2023-01-30T20:17:50;2.40;99.90
2997;DHT22;1508;48.744;9.110;2023-01-30T20:20:36;2.40;99.90
2997;DHT22;1508;48.744;9.110;2023-01-30T20:23:22;2.40;99.90
2997;DHT22;1508;48.744;9.110;2023-01-30T20:26:10;2.50;99.90
2997;DHT22;1508;48.744;9.110;2023-01-30T20:28:57;2.50;99.90
2997;DHT22;1508;48.744;9.110;2023-01-30T20:31:43;2.60;99.90
2997;DHT22;1508;48.744;9.110;2023-01-30T20:34:28;2.70;99.90
2997;DHT22;1508;48.744;9.110;2023-01-30T20:37:14;2.70;99.90
2997;DHT22;1508;48.744;9.110;2023-01-30T20:40:00;2.70;99.90
2997;DHT22;1508;48.744;9.110;2023-01-30T20:42:46;2.80;99.90
2997;DHT22;1508;48.744;9.110;2023-01-30T20:45:32;2.90;99.90
2997;DHT22;1508;48.744;9.110;2023-01-30T20:48:18;2.90;99.90
2997;DHT22;1508;48.744;9.110;2023-01-30T20:51:07;3.00;99.90
2997;DHT22;1508;48.744;9.110;2023-01-30T20:53:56;3.00;99.90
2997;DHT22;1508;48.744;9.110;2023-01-30T20:56:44;3.00;99.90
2997;DHT22;1508;48.744;9.110;2023-01-30T20:59:30;3.00;99.90
2997;DHT22;1508;48.744;9.110;2023-01-30T21:02:16;3.00;99.90
2997;DHT22;1508;48.744;9.110;2023-01-30T21:05:02;3.00;99.90